sensor_id;sensor_type;location;lat;lon;timestamp;temperature;humidity
37310;DHT22;23195;47.744;7.358;2023-09-19T05:53:09;17.40;99.90
37310;DHT22;23195;47.744;7.358;2023-09-19T05:55:38;17.50;99.90
37310;DHT22;23195;47.744;7.358;2023-09-19T05:58:04;17.50;99.90
37310;DHT22;23195;47.744;7.358;2023-09-19T06:00:30;17.50;99.90
37310;DHT22;23195;47.744;7.358;2023-09-19T06:02:58;17.50;99.90
37310;DHT22;23195;47.744;7.358;2023-09-19T06:05:25;17.60;99.90
37310;DHT22;23195;47.744;7.358;2023-09-19T06:07:58;17.60;99.90
37310;DHT22;23195;47.744;7.358;2023-09-19T06:10:26;17.60;99.90
37310;DHT22;23195;47.744;7.358;2023-09-19T06:12:53;17.60;99.90
37310;DHT22;23195;47.744;7.358;2023-09-19T06:15:21;17.60;99.90
37310;DHT22;23195;47.744;7.358;2023-09-19T06:17:54;17.70;99.90
37310;DHT22;23195;47.744;7.358;2023-09-19T06:20:21;17.80;99.90
37310;DHT22;23195;47.744;7.358;2023-09-19T06:22:49;17.90;99.90
37310;DHT22;23195;47.744;7.358;2023-09-19T06:25:16;18.00;99.90
37310;DHT22;23195;47.744;7.358;2023-09-19T06:27:54;18.00;99.90
37310;DHT22;23195;47.744;7.358;2023-09-19T06:30:21;18.10;99.90
37310;DHT22;23195;47.744;7.358;2023-09-19T06:32:49;18.00;99.90
37310;DHT22;23195;47.744;7.358;2023-09-19T06:35:16;18.20;99.90
37310;DHT22;23195;47.744;7.358;2023-09-19T06:37:45;18.20;99.90
37310;DHT22;23195;47.744;7.358;2023-09-19T06:40:12;18.30;99.90
37310;DHT22;23195;47.744;7.358;2023-09-19T06:42:51;18.40;99.90
37310;DHT22;23195;47.744;7.358;2023-09-19T06:45:18;18.40;99.90
37310;DHT22;23195;47.744;7.358;2023-09-19T06:47:49;18.40;99.90
37310;DHT22;23195;47.744;7.358;2023-09-19T06:50:19;18.50;99.90
37310;DHT22;23195;47.744;7.358;2023-09-19T06:52:47;18.40;99.90
37310;DHT22;23195;47.744;7.358;2023-09-19T06:55:16;18.50;99.90
37310;DHT22;23195;47.744;7.358;2023-09-19T06:58:03;18.60;99.90
37310;DHT22;23195;47.744;7.358;2023-09-19T07:08:20;19.30;99.90
37310;DHT22;23195;47.744;7.358;2023-09-19T07:14:42;21.30;99.90
37310;DHT22;23195;47.744;7.358;2023-09-19T07:17:16;21.80;99.90
37310;DHT22;23195;47.744;7.358;2023-09-19T07:19:52;22.40;99.90
37310;DHT22;23195;47.744;7.358;2023-09-19T07:25:25;23.40;99.90
37310;DHT22;23195;47.744;7.358;2023-09-19T07:28:12;23.10;99.90
37310;DHT22;23195;47.744;7.358;2023-09-19T07:31:15;23.10;99.90
37310;DHT22;23195;47.744;7.358;2023-09-19T07:33:45;23.40;99.90
37310;DHT22;23195;47.744;7.358;2023-09-19T07:36:16;23.80;99.90
37310;DHT22;23195;47.744;7.358;2023-09-19T07:45:09;26.50;99.90
37310;DHT22;23195;47.744;7.358;2023-09-19T07:47:46;26.70;99.90
37310;DHT22;23195;47.744;7.358;2023-09-19T07:50:20;27.10;99.90
37310;DHT22;23195;47.744;7.358;2023-09-19T07:52:50;27.40;99.90
37310;DHT22;23195;47.744;7.358;2023-09-19T07:55:29;27.70;99.90
37310;DHT22;23195;47.744;7.358;2023-09-19T07:58:07;27.00;99.90
37310;DHT22;23195;47.744;7.358;2023-09-19T08:00:49;26.40;99.90
37310;DHT22;23195;47.744;7.358;2023-09-19T08:03:40;25.30;99.90
37310;DHT22;23195;47.744;7.358;2023-09-19T08:10:21;25.10;99.90
37310;DHT22;23195;47.744;7.358;2023-09-19T08:16:56;26.00;99.90
37310;DHT22;23195;47.744;7.358;2023-09-19T08:19:33;26.60;99.90
37310;DHT22;23195;47.744;7.358;2023-09-19T08:25:35;26.80;99.90
37310;DHT22;23195;47.744;7.358;2023-09-19T08:28:03;26.90;99.90
37310;DHT22;23195;47.744;7.358;2023-09-19T08:30:53;26.50;99.90
37310;DHT22;23195;47.744;7.358;2023-09-19T08:33:28;26.30;99.90
37310;DHT22;23195;47.744;7.358;2023-09-19T08:36:32;25.80;99.90
37310;DHT22;23195;47.744;7.358;2023-09-19T08:39:07;25.50;99.90
37310;DHT22;23195;47.744;7.358;2023-09-19T08:55:23;24.70;99.90
37310;DHT22;23195;47.744;7.358;2023-09-19T09:01:22;24.20;99.90
37310;DHT22;23195;47.744;7.358;2023-09-19T09:04:02;23.80;99.90
37310;DHT22;23195;47.744;7.358;2023-09-19T09:06:33;23.50;99.90
37310;DHT22;23195;47.744;7.358;2023-09-19T09:09:14;23.40;99.90
37310;DHT22;23195;47.744;7.358;2023-09-19T09:12:03;23.10;99.90
37310;DHT22;23195;47.744;7.358;2023-09-19T09:18:23;23.10;99.90
37310;DHT22;23195;47.744;7.358;2023-09-19T09:24:31;23.30;99.90
37310;DHT22;23195;47.744;7.358;2023-09-19T09:27:16;22.80;99.90
37310;DHT22;23195;47.744;7.358;2023-09-19T09:30:01;22.80;99.90
37310;DHT22;23195;47.744;7.358;2023-09-19T09:33:04;22.90;99.90
37310;DHT22;23195;47.744;7.358;2023-09-19T09:36:38;22.60;99.90
37310;DHT22;23195;47.744;7.358;2023-09-19T09:46:29;22.30;99.90
37310;DHT22;23195;47.744;7.358;2023-09-19T09:53:37;22.20;99.90
37310;DHT22;23195;47.744;7.358;2023-09-19T09:57:26;22.00;99.90
37310;DHT22;23195;47.744;7.358;2023-09-19T10:25:08;22.10;99.90
37310;DHT22;23195;47.744;7.358;2023-09-19T10:27:45;22.20;99.90
37310;DHT22;23195;47.744;7.358;2023-09-19T10:33:56;20.70;99.90
37310;DHT22;23195;47.744;7.358;2023-09-19T10:40:45;22.40;99.90
37310;DHT22;23195;47.744;7.358;2023-09-19T11:07:23;23.20;99.90
37310;DHT22;23195;47.744;7.358;2023-09-19T11:20:21;23.00;99.90
37310;DHT22;23195;47.744;7.358;2023-09-19T11:50:37;23.90;99.90
37310;DHT22;23195;47.744;7.358;2023-09-19T12:00:30;23.30;99.90
37310;DHT22;23195;47.744;7.358;2023-09-19T12:14:09;23.70;99.40
37310;DHT22;23195;47.744;7.358;2023-09-19T12:20:43;23.60;98.70
37310;DHT22;23195;47.744;7.358;2023-09-19T12:23:30;23.60;99.90
37310;DHT22;23195;47.744;7.358;2023-09-19T12:26:46;23.80;98.10
37310;DHT22;23195;47.744;7.358;2023-09-19T12:57:07;23.90;95.50
37310;DHT22;23195;47.744;7.358;2023-09-19T13:07:04;24.00;94.70
37310;DHT22;23195;47.744;7.358;2023-09-19T13:17:21;24.00;92.40
37310;DHT22;23195;47.744;7.358;2023-09-19T13:38:43;24.10;94.00
37310;DHT22;23195;47.744;7.358;2023-09-19T13:56:24;24.20;94.10
37310;DHT22;23195;47.744;7.358;2023-09-19T13:59:39;24.20;93.90
37310;DHT22;23195;47.744;7.358;2023-09-19T14:02:44;24.10;94.70
37310;DHT22;23195;47.744;7.358;2023-09-19T14:05:32;24.10;93.90
37310;DHT22;23195;47.744;7.358;2023-09-19T14:48:48;24.20;95.30
37310;DHT22;23195;47.744;7.358;2023-09-19T14:51:38;24.30;94.80
37310;DHT22;23195;47.744;7.358;2023-09-19T14:55:06;23.60;94.60
37310;DHT22;23195;47.744;7.358;2023-09-19T15:05:06;23.90;95.30
37310;DHT22;23195;47.744;7.358;2023-09-19T16:01:39;23.40;96.40
37310;DHT22;23195;47.744;7.358;2023-09-19T16:22:20;22.00;97.80
37310;DHT22;23195;47.744;7.358;2023-09-19T16:41:11;22.40;99.80
37310;DHT22;23195;47.744;7.358;2023-09-19T17:54:30;20.00;99.90
37310;DHT22;23195;47.744;7.358;2023-09-19T17:56:56;20.00;99.90
37310;DHT22;23195;47.744;7.358;2023-09-19T17:59:24;19.90;99.90
37310;DHT22;23195;47.744;7.358;2023-09-19T18:01:50;19.80;99.90
37310;DHT22;23195;47.744;7.358;2023-09-19T18:04:19;19.70;99.90
37310;DHT22;23195;47.744;7.358;2023-09-19T18:06:45;19.70;99.90
37310;DHT22;23195;47.744;7.358;2023-09-19T18:09:14;19.60;99.90
37310;DHT22;23195;47.744;7.358;2023-09-19T18:11:42;19.50;99.90
37310;DHT22;23195;47.744;7.358;2023-09-19T18:14:08;19.50;99.90
37310;DHT22;23195;47.744;7.358;2023-09-19T18:16:35;19.40;99.90
37310;DHT22;23195;47.744;7.358;2023-09-19T18:19:03;19.30;99.90
37310;DHT22;23195;47.744;7.358;2023-09-19T18:21:29;19.30;99.90
37310;DHT22;23195;47.744;7.358;2023-09-19T18:23:59;19.30;99.90
37310;DHT22;23195;47.744;7.358;2023-09-19T18:26:30;19.20;99.90
37310;DHT22;23195;47.744;7.358;2023-09-19T18:28:56;19.20;99.90
37310;DHT22;23195;47.744;7.358;2023-09-19T18:31:27;19.20;99.90
37310;DHT22;23195;47.744;7.358;2023-09-19T18:33:56;19.10;99.90
37310;DHT22;23195;47.744;7.358;2023-09-19T18:36:25;18.90;99.90
37310;DHT22;23195;47.744;7.358;2023-09-19T18:38:53;19.00;99.90
37310;DHT22;23195;47.744;7.358;2023-09-19T18:41:20;19.00;99.90
37310;DHT22;23195;47.744;7.358;2023-09-19T18:43:46;19.00;99.90
37310;DHT22;23195;47.744;7.358;2023-09-19T18:46:12;19.00;99.90
37310;DHT22;23195;47.744;7.358;2023-09-19T18:48:39;18.90;99.90
37310;DHT22;23195;47.744;7.358;2023-09-19T18:51:07;18.80;99.90
37310;DHT22;23195;47.744;7.358;2023-09-19T18:53:36;18.80;99.90
37310;DHT22;23195;47.744;7.358;2023-09-19T18:56:07;18.70;99.90
37310;DHT22;23195;47.744;7.358;2023-09-19T18:58:33;18.70;99.90
37310;DHT22;23195;47.744;7.358;2023-09-19T19:01:07;18.70;99.90
37310;DHT22;23195;47.744;7.358;2023-09-19T19:03:33;18.50;99.90
37310;DHT22;23195;47.744;7.358;2023-09-19T19:06:06;18.50;99.90
37310;DHT22;23195;47.744;7.358;2023-09-19T19:08:33;18.40;99.90
37310;DHT22;23195;47.744;7.358;2023-09-19T19:11:00;18.40;99.90
37310;DHT22;23195;47.744;7.358;2023-09-19T19:13:26;18.40;99.90
37310;DHT22;23195;47.744;7.358;2023-09-19T19:15:56;18.30;99.90
37310;DHT22;23195;47.744;7.358;2023-09-19T19:18:22;18.20;99.90
37310;DHT22;23195;47.744;7.358;2023-09-19T19:23:23;18.10;99.90
37310;DHT22;23195;47.744;7.358;2023-09-19T19:25:49;18.00;99.90
37310;DHT22;23195;47.744;7.358;2023-09-19T19:28:16;18.00;99.90
37310;DHT22;23195;47.744;7.358;2023-09-19T19:30:46;17.90;99.90
37310;DHT22;23195;47.744;7.358;2023-09-19T19:33:14;18.00;99.90
37310;DHT22;23195;47.744;7.358;2023-09-19T19:35:39;17.90;99.90
37310;DHT22;23195;47.744;7.358;2023-09-19T19:38:10;18.00;99.90
37310;DHT22;23195;47.744;7.358;2023-09-19T19:40:36;18.00;99.90
37310;DHT22;23195;47.744;7.358;2023-09-19T19:43:06;18.00;99.90
37310;DHT22;23195;47.744;7.358;2023-09-19T19:45:32;17.90;99.90
37310;DHT22;23195;47.744;7.358;2023-09-19T19:47:58;17.80;99.90
37310;DHT22;23195;47.744;7.358;2023-09-19T19:50:24;17.90;99.90
37310;DHT22;23195;47.744;7.358;2023-09-19T19:52:53;17.80;99.90
37310;DHT22;23195;47.744;7.358;2023-09-19T19:55:22;17.70;99.90
37310;DHT22;23195;47.744;7.358;2023-09-19T19:57:53;17.80;99.90
37310;DHT22;23195;47.744;7.358;2023-09-19T20:00:20;17.70;99.90
37310;DHT22;23195;47.744;7.358;2023-09-19T20:02:48;17.70;99.90
37310;DHT22;23195;47.744;7.358;2023-09-19T20:05:17;17.70;99.90
37310;DHT22;23195;47.744;7.358;2023-09-19T20:07:44;17.80;99.90
37310;DHT22;23195;47.744;7.358;2023-09-19T20:10:14;17.70;99.90
37310;DHT22;23195;47.744;7.358;2023-09-19T20:12:45;17.70;99.90
37310;DHT22;23195;47.744;7.358;2023-09-19T20:15:16;17.60;99.90
37310;DHT22;23195;47.744;7.358;2023-09-19T20:17:42;17.60;99.90
37310;DHT22;23195;47.744;7.358;2023-09-19T20:20:08;17.60;99.90
37310;DHT22;23195;47.744;7.358;2023-09-19T20:22:44;17.70;99.90
37310;DHT22;23195;47.744;7.358;2023-09-19T20:25:14;17.50;99.90
37310;DHT22;23195;47.744;7.358;2023-09-19T20:27:41;17.40;99.90
37310;DHT22;23195;47.744;7.358;2023-09-19T20:30:08;17.40;99.90
37310;DHT22;23195;47.744;7.358;2023-09-19T20:32:35;17.40;99.90
37310;DHT22;23195;47.744;7.358;2023-09-19T20:35:06;17.30;99.90
37310;DHT22;23195;47.744;7.358;2023-09-19T20:37:32;17.30;99.90
37310;DHT22;23195;47.744;7.358;2023-09-19T20:40:06;17.30;99.90
37310;DHT22;23195;47.744;7.358;2023-09-19T20:42:38;16.10;99.90
37310;DHT22;23195;47.744;7.358;2023-09-19T20:45:08;17.30;99.90
37310;DHT22;23195;47.744;7.358;2023-09-19T20:47:41;17.20;99.90
37310;DHT22;23195;47.744;7.358;2023-09-19T20:50:13;17.20;99.90
37310;DHT22;23195;47.744;7.358;2023-09-19T20:52:40;17.10;99.90
37310;DHT22;23195;47.744;7.358;2023-09-19T20:55:06;17.20;99.90
37310;DHT22;23195;47.744;7.358;2023-09-19T20:57:33;17.20;99.90
37310;DHT22;23195;47.744;7.358;2023-09-19T20:59:59;17.20;99.90
37310;DHT22;23195;47.744;7.358;2023-09-19T21:02:29;17.10;99.90
37310;DHT22;23195;47.744;7.358;2023-09-19T21:04:55;17.10;99.90
37310;DHT22;23195;47.744;7.358;2023-09-19T21:07:21;17.00;99.90
37310;DHT22;23195;47.744;7.358;2023-09-19T21:09:47;17.00;99.90
37310;DHT22;23195;47.744;7.358;2023-09-19T21:12:13;16.90;99.90
37310;DHT22;23195;47.744;7.358;2023-09-19T21:14:39;16.80;99.90
37310;DHT22;23195;47.744;7.358;2023-09-19T21:17:05;16.80;99.90
37310;DHT22;23195;47.744;7.358;2023-09-19T21:19:31;16.70;99.90
37310;DHT22;23195;47.744;7.358;2023-09-19T21:21:57;16.70;99.90
37310;DHT22;23195;47.744;7.358;2023-09-19T21:24:26;16.60;99.90
37310;DHT22;23195;47.744;7.358;2023-09-19T21:26:58;16.50;99.90
37310;DHT22;23195;47.744;7.358;2023-09-19T21:29:30;16.60;99.90
